Portada
METAR-TAF:

METAR-TAF

Aeropuertos :

Annecy, Francia

latitud: 45-55-45N, longitud: 006-05-56E, altitud: 463 m

Observación

El informe se hizo hace 34 minutos, a las 21:00 UTC
Viento 5 kt del este-noreste
Temperatura 5°C
Humedad 81%
Presión 1028 hPa
Visibilidad 10 km o más
sin nubes por debajo de 1500 m y sin presencia de cumulonimbus.

METAR: LFLP 032100Z AUTO 07005KT CAVOK 05/02 Q1028

Hora: 22:34 (21:34 UTC)

Pronóstico

El informe se hizo hace 7 horas y 34 minutos, a las 14:00 UTC
Pronóstico válido del 03 a las 15 UTC al 04 a las 15 UTC
Viento 3 kt con dirección variable
Visibilidad 10 km o más
sin nubes por debajo de 1500 m y sin presencia de cumulonimbus.
Evolucionando progresivamente
del 04 a las 10 UTC al 04 a las 12 UTC
Viento 8 kt del sur

TAF: LFLP 031400Z 0315/0415 VRB03KT CAVOK BECMG 0410/0412 19008KT

Observaciones y pronósticos meteorológicos de más de 4000 aeropuertos (mensajes METAR y TAF).

Los puntos amarillos y rojos representan las estaciones disponibles.

Ponga el ratón en el punto deseado para ver el nombre de la estación.

Haga clic para ver las observaciones y los pronósticos meteorológicos.

Para cambiar el mapa : haga clic en los botones verdes con una cruz de color negro para hacer un zoom, en el botón verde con un guión para alejar o en las flechas verdes para mapas adyacentes.


METAR-TAF: